Mantorville, Minnesota
Current Conditions -  °F | °C
As of 7:34 PM on Saturday 25 Oct 2014 (Local Time) from KTOB Reporting Station
Clear Clear  
Wind Chill: 12°   Ceiling: Unl
Heat Index: 12°   Visibility: 10mi
Dew Point: -2°   Wind: 9mph
Humidity: 38%   Direction: 300°WNW
Pressure: 30.05"   Gusts: NA
Location:  44.07°N, 92.76°W
Report Text: KTOB 260034Z AUTO 30008KT 10SM CLR 12/M02 A3005 RMK AO2
Loading
Personal Weather Stations






























Interactive Weather Map
Tropical Storm Tracking
New forecast layout! Learn more

10-Day Weather Forecast

Advertisements
Track Severe Weather on mobile